Pagrindinis puslapis
METAR-TAF:

METAR-TAF

Oro uostai :

Pafosas, Kipras

platuma: 34-43N, ilguma: 032-29E, Aukštis: 11 m

Dabartinis oras

Ataskaita buvo paskelbta 19 minutes, ne 15:00 UTC
Vėjas 12 kt iš Vakarų
Temperatūra 23°C
Drėgmė 69%
Slėgis 1009 hPa
Matomumas 10 km arba daugiau
Mažai debesys ne aukštis 3000 ft

METAR: LCPH 121500Z 28012KT 9999 FEW030 23/17 Q1009

Laikas: 18:19 (15:19 UTC)

Prognozė

Ataskaita buvo paskelbta 3 valandos ir 49 minutes, ne 11:30 UTC
Prognozė galioja nuo 12 metu 12 UTC su 13 metu 12 UTC
Vėjas 12 kt iš Vakarų
Matomumas 10 km arba daugiau
nėra debesų žemiau 1500 m ir nėra kamuolinių lietaus debesų
Tapsmas
nuo 12 metu 18 UTC su 12 metu 22 UTC
Vėjas 6 kt iš Šiaurės
Tapsmas
nuo 13 metu 06 UTC su 13 metu 10 UTC
Vėjas 11 kt iš Vakarų

TAF: LCPH 121130Z 1212/1312 27012KT CAVOK BECMG 1218/1222 01006KT BECMG 1306/1310 27011KT

Orai ataskaitas ir orų prognozės (METAR, TAF).

turimą stotys yra geltonos ir raudonos taškus žemėlapyje.

Perkelti pele per norėdami pamatyti stoties vardą.

Tada spustelėkite, norėdami matyti oro stebėjimo ir prognozės.

Norėdami pakeisti žemėlapį: spustelėkite ant žalios mygtukų su juodo kryžiaus žemyn,; žalią mygtuką su brūkšneliu, jei norite nutolinti; arba žalių rodyklių gretimoms žemėlapius.


METAR-TAF: